Time;durP1;ratioP1;P1;durP2;ratioP2;P2;SDS_P1;SDS_P2;PMS_P1;PMS_P2;Temp;Humidity;BMP_temperature;BMP_pressure;BME280_temperature;BME280_humidity;BME280_pressure;Samples;Min_cycle;Max_cycle;Signal;HPM_P1;HPM_P2
2023/02/19 00:01:26;;;;;;;8.82;3.17;;;15.80;73.00;;;;;;4993779;28;20049;-74
2023/02/19 00:03:53;;;;;;;;;;;15.80;64.70;;;;;;4994299;28;20034;-73
2023/02/19 00:06:20;;;;;;;8.75;2.70;;;15.80;64.70;;;;;;4994095;28;20284;-73
2023/02/19 00:08:47;;;;;;;10.65;2.92;;;15.80;64.70;;;;;;4993814;28;20050;-73
2023/02/19 00:11:16;;;;;;;9.40;3.08;;;15.80;64.70;;;;;;4993883;28;20089;-72
2023/02/19 00:13:44;;;;;;;9.73;3.10;;;15.80;64.70;;;;;;4993694;28;20030;-73
2023/02/19 00:16:19;;;;;;;9.73;2.83;;;15.80;65.30;;;;;;4993812;28;20098;-72
2023/02/19 00:18:45;;;;;;;7.60;2.95;;;15.80;64.60;;;;;;4993852;28;20393;-73
2023/02/19 00:21:12;;;;;;;11.02;2.90;;;15.80;64.60;;;;;;4993403;28;20477;-73
2023/02/19 00:23:38;;;;;;;12.77;4.03;;;15.90;64.60;;;;;;4993455;28;20473;-73
2023/02/19 00:26:10;;;;;;;11.43;3.35;;;15.80;64.50;;;;;;4993326;28;20029;-72
2023/02/19 00:28:36;;;;;;;9.10;3.10;;;15.80;64.50;;;;;;4993593;28;20073;-72
2023/02/19 00:31:05;;;;;;;9.25;3.00;;;15.80;64.60;;;;;;4993242;28;20088;-72
2023/02/19 00:33:32;;;;;;;8.80;3.17;;;15.80;64.50;;;;;;4993605;28;20057;-72
2023/02/19 00:36:03;;;;;;;9.60;2.67;;;15.80;64.40;;;;;;4993516;28;20034;-72
2023/02/19 00:38:29;;;;;;;9.05;2.38;;;15.80;64.50;;;;;;4993109;28;20092;-72
2023/02/19 00:40:57;;;;;;;12.60;3.22;;;15.80;64.50;;;;;;4993151;28;20499;-73
2023/02/19 00:43:23;;;;;;;8.52;2.42;;;15.80;64.50;;;;;;4993389;28;20050;-75
2023/02/19 00:45:49;;;;;;;11.57;3.45;;;15.80;64.40;;;;;;4993355;28;20073;-73
2023/02/19 00:48:15;;;;;;;11.00;3.00;;;15.80;64.40;;;;;;4993142;28;20062;-73
2023/02/19 00:50:41;;;;;;;9.88;2.60;;;15.80;64.40;;;;;;4992442;28;20030;-73
2023/02/19 00:53:07;;;;;;;11.13;3.00;;;15.80;64.40;;;;;;4975986;28;20042;-73
2023/02/19 00:55:33;;;;;;;8.80;2.30;;;15.80;64.40;;;;;;4975597;28;20525;-73
2023/02/19 00:57:59;;;;;;;7.68;3.30;;;15.90;64.50;;;;;;4975639;28;20050;-73
2023/02/19 01:00:25;;;;;;;7.25;2.55;;;15.90;64.50;;;;;;4975717;28;20022;-72
2023/02/19 01:02:51;;;;;;;10.70;3.25;;;15.80;64.40;;;;;;4975309;28;20034;-72
2023/02/19 01:05:17;;;;;;;10.40;2.60;;;15.80;64.50;;;;;;4975347;28;20050;-72
2023/02/19 01:07:44;;;;;;;9.43;2.90;;;15.90;64.40;;;;;;4993136;28;20038;-72
2023/02/19 01:10:10;;;;;;;10.25;3.20;;;15.90;64.50;;;;;;4975750;28;20037;-73
2023/02/19 01:12:36;;;;;;;10.88;2.60;;;15.90;64.40;;;;;;4975356;28;20030;-73
2023/02/19 01:15:03;;;;;;;8.55;2.63;;;15.80;64.40;;;;;;4975398;28;20486;-72
2023/02/19 01:17:29;;;;;;;6.60;2.15;;;15.80;64.40;;;;;;4975484;28;20027;-73
2023/02/19 01:19:55;;;;;;;8.77;2.40;;;15.90;64.50;;;;;;4975758;28;20042;-73
2023/02/19 01:22:21;;;;;;;6.95;1.85;;;15.90;64.50;;;;;;4975277;28;20126;-73
2023/02/19 01:24:47;;;;;;;4.95;1.77;;;15.90;64.50;;;;;;4975238;28;20027;-72
2023/02/19 01:27:13;;;;;;;7.90;1.98;;;15.90;64.40;;;;;;4975535;28;20029;-73
2023/02/19 01:29:41;;;;;;;7.40;2.95;;;15.90;64.40;;;;;;4975512;28;20384;-72
2023/02/19 01:32:07;;;;;;;7.45;2.15;;;15.90;64.40;;;;;;4975803;28;20101;-73
2023/02/19 01:34:33;;;;;;;6.57;2.25;;;15.90;64.40;;;;;;4975119;28;20623;-72
2023/02/19 01:36:59;;;;;;;10.02;2.40;;;15.90;64.50;;;;;;4975670;28;20386;-72
2023/02/19 01:39:25;;;;;;;6.43;1.90;;;15.90;64.50;;;;;;4975131;28;20027;-73
2023/02/19 01:41:51;;;;;;;6.82;1.90;;;15.90;64.40;;;;;;4975537;28;20054;-73
2023/02/19 01:44:18;;;;;;;6.47;1.70;;;15.90;64.50;;;;;;4975098;28;20473;-73
2023/02/19 01:46:45;;;;;;;8.63;2.40;;;15.90;64.40;;;;;;4992669;28;20030;-73
2023/02/19 01:49:13;;;;;;;5.82;2.08;;;15.90;64.40;;;;;;4975412;28;20037;-73
2023/02/19 01:52:01;;;;;;;9.60;2.45;;;15.90;64.50;;;;;;4975323;28;20169;-73
2023/02/19 01:54:32;;;;;;;4.93;1.80;;;15.90;64.40;;;;;;4975525;28;20421;-73
2023/02/19 01:57:02;;;;;;;6.00;2.10;;;15.90;64.40;;;;;;4975135;28;20106;-74
2023/02/19 01:59:30;;;;;;;7.57;1.95;;;15.90;64.50;;;;;;4975318;28;20449;-73
2023/02/19 02:01:58;;;;;;;5.22;1.70;;;15.90;64.40;;;;;;4978465;28;20068;-73
2023/02/19 02:04:25;;;;;;;6.80;2.17;;;15.90;64.50;;;;;;4978698;28;20055;-73
2023/02/19 02:06:54;;;;;;;6.55;2.00;;;15.90;64.40;;;;;;4978806;28;20074;-73
2023/02/19 02:12:09;;;;;;;6.05;1.83;;;15.90;64.50;;;;;;4981542;28;20053;-74
2023/02/19 02:14:37;;;;;;;4.50;1.80;;;15.90;64.40;;;;;;4978889;28;20404;-74
2023/02/19 02:17:19;;;;;;;5.32;1.73;;;15.80;64.30;;;;;;4978560;28;20142;-73
2023/02/19 02:20:01;;;;;;;4.85;1.77;;;15.90;64.40;;;;;;4995714;28;20102;-73
2023/02/19 02:22:31;;;;;;;6.07;1.50;;;15.90;64.40;;;;;;4995800;28;20444;-72
2023/02/19 02:25:15;;;;;;;;;;;15.80;64.40;;;;;;4996120;28;20025;-72
2023/02/19 02:27:59;;;;;;;5.85;1.75;;;15.80;64.30;;;;;;4995628;28;19912;-73
2023/02/19 02:30:48;;;;;;;6.05;1.70;;;15.80;64.40;;;;;;4995761;28;20485;-74
2023/02/19 02:33:36;;;;;;;4.15;1.25;;;15.80;64.40;;;;;;4995551;28;20061;-74
2023/02/19 02:36:05;;;;;;;7.53;1.77;;;15.80;64.40;;;;;;4995567;28;20060;-74
2023/02/19 02:38:37;;;;;;;11.23;2.57;;;15.80;64.40;;;;;;4995521;28;20511;-74
2023/02/19 02:41:04;;;;;;;5.43;1.60;;;15.80;64.50;;;;;;4977880;28;20772;-74
2023/02/19 02:43:30;;;;;;;5.13;1.50;;;15.80;64.40;;;;;;4977899;28;20034;-74
2023/02/19 02:45:55;;;;;;;5.47;1.20;;;15.80;64.50;;;;;;4977860;28;20038;-74
2023/02/19 02:48:33;;;;;;;5.15;1.33;;;15.90;64.60;;;;;;4977969;28;20492;-74
2023/02/19 02:51:03;;;;;;;4.75;1.60;;;15.90;64.50;;;;;;4995337;28;20477;-73
2023/02/19 02:56:25;;;;;;;3.83;1.55;;;15.80;64.50;;;;;;4981586;28;20081;-73
2023/02/19 02:58:52;;;;;;;4.13;1.40;;;15.80;64.60;;;;;;4977677;28;20062;-73
2023/02/19 03:05:50;;;;;;;3.58;1.42;;;15.90;64.50;;;;;;4994888;28;20412;-73
2023/02/19 03:07:25;;;;;;;5.22;1.55;;;15.80;64.40;;;;;;4983325;28;20039;-73
2023/02/19 03:09:52;;;;;;;3.38;1.13;;;15.90;64.00;;;;;;4961746;28;20057;-74
2023/02/19 03:20:45;;;;;;;;;;;15.80;64.60;;;;;;4980712;28;20153;-75
2023/02/19 03:23:13;;;;;;;3.55;1.50;;;15.80;64.40;;;;;;4977118;28;19981;-74
2023/02/19 03:31:18;;;;;;;4.22;1.40;;;15.90;64.50;;;;;;4980086;28;20054;-75
2023/02/19 03:33:49;;;;;;;3.40;1.17;;;15.80;64.60;;;;;;4977003;28;20057;-75
2023/02/19 03:36:15;;;;;;;3.92;1.10;;;15.80;64.60;;;;;;4977563;28;20034;-75
2023/02/19 03:38:47;;;;;;;5.75;1.50;;;15.80;64.50;;;;;;4977014;28;20041;-73
2023/02/19 03:41:30;;;;;;;5.55;1.35;;;15.80;64.50;;;;;;4994322;28;20027;-73
2023/02/19 03:43:58;;;;;;;3.55;1.30;;;15.80;64.50;;;;;;4994218;28;20102;-72
2023/02/19 03:46:32;;;;;;;3.17;1.10;;;15.80;64.50;;;;;;4994244;28;20023;-73
2023/02/19 03:49:09;;;;;;;5.03;1.35;;;15.80;64.50;;;;;;4976635;28;20105;-73
2023/02/19 03:51:46;;;;;;;4.60;1.55;;;15.80;64.50;;;;;;4976755;28;20066;-74
2023/02/19 03:54:44;;;;;;;3.17;1.08;;;15.80;64.60;;;;;;4976729;28;20027;-75
2023/02/19 03:57:35;;;;;;;3.33;1.20;;;15.80;64.50;;;;;;4993947;28;20026;-74
2023/02/19 04:00:09;;;;;;;3.92;1.27;;;15.80;64.40;;;;;;4985152;28;20513;-73
2023/02/19 04:02:47;;;;;;;4.70;1.50;;;15.90;64.50;;;;;;4993716;28;20038;-72
2023/02/19 04:05:22;;;;;;;3.83;1.48;;;15.80;64.50;;;;;;4993662;28;20117;-72
2023/02/19 04:07:55;;;;;;;4.35;1.40;;;15.80;64.50;;;;;;4976390;28;20382;-73
2023/02/19 04:10:22;;;;;;;3.00;1.45;;;15.90;64.60;;;;;;4976208;28;20030;-72
2023/02/19 04:12:54;;;;;;;1.90;0.90;;;15.80;64.60;;;;;;4976245;28;20030;-73
2023/02/19 04:15:26;;;;;;;4.65;1.30;;;15.80;65.20;;;;;;4976580;28;20034;-72
2023/02/19 04:18:08;;;;;;;4.53;1.48;;;15.80;64.50;;;;;;4976643;28;20030;-72
2023/02/19 04:20:42;;;;;;;4.40;1.13;;;15.80;64.50;;;;;;4993484;28;20486;-72
2023/02/19 04:23:09;;;;;;;2.67;0.85;;;15.90;64.50;;;;;;4993713;28;20165;-72
2023/02/19 04:25:38;;;;;;;3.95;1.15;;;15.80;64.50;;;;;;4993728;28;20045;-73
2023/02/19 04:28:06;;;;;;;4.70;1.08;;;15.80;64.40;;;;;;4993688;28;20022;-72
2023/02/19 04:30:31;;;;;;;2.75;0.88;;;15.80;64.40;;;;;;4993449;28;20030;-73
2023/02/19 04:32:57;;;;;;;4.03;0.98;;;15.90;64.50;;;;;;4993357;28;20027;-72
2023/02/19 04:35:22;;;;;;;4.10;1.35;;;15.80;64.50;;;;;;4993244;28;20026;-72
2023/02/19 04:37:48;;;;;;;2.92;1.45;;;15.80;64.50;;;;;;4993351;28;20564;-74
2023/02/19 04:40:14;;;;;;;4.55;1.40;;;15.80;64.40;;;;;;4993193;28;20034;-73
2023/02/19 04:42:39;;;;;;;2.47;1.00;;;15.80;64.40;;;;;;4975790;28;20084;-74
2023/02/19 04:45:05;;;;;;;4.80;1.45;;;15.80;64.40;;;;;;4993214;28;20062;-73
2023/02/19 04:47:31;;;;;;;3.08;1.00;;;15.90;64.50;;;;;;4993148;28;20060;-74
2023/02/19 04:49:57;;;;;;;3.40;1.40;;;15.80;64.40;;;;;;4993193;28;20026;-74
2023/02/19 04:52:23;;;;;;;3.20;1.05;;;15.90;64.50;;;;;;4992953;28;20543;-74
2023/02/19 04:54:49;;;;;;;1.88;0.73;;;15.80;64.50;;;;;;4992995;28;20624;-74
2023/02/19 04:57:15;;;;;;;2.15;1.00;;;15.80;64.40;;;;;;4992920;28;20034;-74
2023/02/19 04:59:41;;;;;;;2.45;0.90;;;15.80;64.40;;;;;;4993327;28;20029;-74
2023/02/19 05:02:07;;;;;;;4.82;1.55;;;15.90;64.50;;;;;;4993147;28;20022;-73
2023/02/19 05:04:33;;;;;;;2.08;1.25;;;15.80;64.40;;;;;;4992806;28;20069;-73
2023/02/19 05:06:59;;;;;;;4.18;1.15;;;15.80;64.40;;;;;;4992863;28;20029;-72
2023/02/19 05:09:25;;;;;;;2.47;0.88;;;15.80;64.40;;;;;;4993045;28;20065;-74
2023/02/19 05:11:51;;;;;;;3.20;0.80;;;15.80;64.40;;;;;;4993080;28;20054;-75
2023/02/19 05:14:17;;;;;;;1.73;1.00;;;15.80;64.40;;;;;;4992685;28;20081;-75
2023/02/19 05:16:43;;;;;;;3.83;1.27;;;15.80;64.40;;;;;;4992852;28;20023;-74
2023/02/19 05:19:11;;;;;;;3.25;1.00;;;15.80;65.10;;;;;;4992689;28;20027;-74
2023/02/19 05:21:39;;;;;;;3.45;0.90;;;15.80;64.40;;;;;;4992958;28;20026;-74
2023/02/19 05:24:05;;;;;;;2.55;1.08;;;15.80;64.40;;;;;;4992878;28;20508;-74
2023/02/19 05:26:31;;;;;;;2.00;0.80;;;15.90;64.40;;;;;;4992644;28;20116;-73
2023/02/19 05:28:58;;;;;;;2.88;0.85;;;15.80;64.40;;;;;;4992896;28;20011;-73
2023/02/19 05:31:25;;;;;;;3.33;1.15;;;15.80;64.40;;;;;;4992582;28;20037;-73
2023/02/19 05:33:51;;;;;;;3.25;1.02;;;15.80;64.40;;;;;;4992906;28;20098;-74
2023/02/19 05:36:19;;;;;;;2.15;0.80;;;15.80;64.40;;;;;;4995251;28;20103;-74
2023/02/19 05:38:46;;;;;;;2.60;1.05;;;15.80;64.40;;;;;;4996915;28;20089;-73
2023/02/19 05:41:14;;;;;;;2.72;0.82;;;15.80;65.00;;;;;;4996850;28;20440;-73
2023/02/19 05:43:42;;;;;;;1.80;0.60;;;15.80;65.10;;;;;;4996697;28;20120;-73
2023/02/19 05:46:13;;;;;;;1.88;0.77;;;15.80;64.30;;;;;;4996771;28;20010;-73
2023/02/19 05:48:39;;;;;;;3.42;1.23;;;15.80;64.40;;;;;;4996358;28;20103;-73
2023/02/19 05:51:08;;;;;;;4.80;1.15;;;15.80;64.40;;;;;;4996696;28;20444;-73
2023/02/19 05:53:34;;;;;;;2.83;1.02;;;15.80;64.30;;;;;;4996522;28;20021;-75
2023/02/19 05:56:01;;;;;;;2.65;1.13;;;15.80;64.30;;;;;;4996244;28;20026;-75
2023/02/19 05:58:27;;;;;;;3.80;1.23;;;15.80;64.30;;;;;;4996183;28;20033;-73
2023/02/19 06:00:54;;;;;;;1.67;0.73;;;15.90;64.30;;;;;;4996433;28;20022;-73
2023/02/19 06:03:21;;;;;;;2.00;0.70;;;15.80;64.30;;;;;;4996224;28;20389;-73
2023/02/19 06:05:47;;;;;;;1.80;0.65;;;15.80;64.20;;;;;;4995910;28;20046;-74
2023/02/19 06:08:14;;;;;;;2.05;0.88;;;15.80;64.30;;;;;;4996154;28;20026;-74
2023/02/19 06:10:40;;;;;;;2.03;0.90;;;15.80;64.30;;;;;;4995982;28;20018;-74
2023/02/19 06:13:06;;;;;;;2.88;1.00;;;15.80;64.20;;;;;;4995986;28;20037;-72
2023/02/19 06:15:32;;;;;;;4.43;1.25;;;15.80;64.20;;;;;;4995856;28;20537;-73
2023/02/19 06:17:59;;;;;;;2.08;0.80;;;15.80;64.30;;;;;;4996236;28;20030;-74
2023/02/19 06:20:25;;;;;;;2.65;0.77;;;15.80;64.20;;;;;;4996063;28;20393;-73
2023/02/19 06:22:51;;;;;;;1.95;0.88;;;15.80;64.20;;;;;;4995995;28;20042;-73
2023/02/19 06:25:17;;;;;;;3.85;1.00;;;15.80;64.30;;;;;;4995748;28;20489;-72
2023/02/19 06:27:43;;;;;;;2.95;0.88;;;15.80;64.30;;;;;;4995704;28;20019;-72
2023/02/19 06:30:10;;;;;;;3.80;0.98;;;15.80;64.40;;;;;;4995713;28;20634;-73
2023/02/19 06:32:35;;;;;;;1.60;0.70;;;15.80;64.40;;;;;;4995634;28;20023;-73
2023/02/19 06:35:02;;;;;;;3.00;0.70;;;15.80;64.40;;;;;;4995894;28;20019;-73
2023/02/19 06:37:28;;;;;;;2.30;0.90;;;15.80;64.40;;;;;;4995780;28;20026;-73
2023/02/19 06:39:54;;;;;;;2.83;1.10;;;15.80;64.40;;;;;;4995441;28;20504;-73
2023/02/19 06:42:20;;;;;;;4.60;0.88;;;15.80;64.40;;;;;;4995430;28;20045;-73
2023/02/19 06:44:46;;;;;;;2.05;0.80;;;15.80;64.40;;;;;;4995310;28;20387;-72
2023/02/19 06:47:12;;;;;;;1.48;0.70;;;15.80;64.50;;;;;;4994353;28;20029;-72
2023/02/19 06:49:39;;;;;;;1.83;0.70;;;15.80;64.50;;;;;;4995327;28;20022;-72
2023/02/19 06:52:06;;;;;;;1.77;0.98;;;15.80;64.50;;;;;;4995543;28;20022;-72
2023/02/19 06:54:32;;;;;;;1.13;0.70;;;15.90;64.50;;;;;;4995165;28;20026;-72
2023/02/19 06:56:58;;;;;;;2.28;0.80;;;15.80;64.40;;;;;;4995073;28;20019;-72
2023/02/19 06:59:25;;;;;;;1.05;0.82;;;15.80;64.50;;;;;;4995128;28;20105;-72
2023/02/19 07:01:51;;;;;;;2.70;1.20;;;15.80;64.50;;;;;;4994903;28;20033;-72
2023/02/19 07:04:17;;;;;;;1.52;0.80;;;15.90;65.20;;;;;;4994738;28;20047;-72
2023/02/19 07:06:43;;;;;;;2.42;1.10;;;15.80;64.50;;;;;;4995269;28;20023;-74
2023/02/19 07:09:10;;;;;;;1.73;0.90;;;15.90;64.60;;;;;;4995025;28;20489;-74
2023/02/19 07:11:38;;;;;;;2.60;0.90;;;15.80;64.60;;;;;;4995190;28;20030;-74
2023/02/19 07:14:12;;;;;;;1.83;0.80;;;15.90;64.60;;;;;;4977833;28;20422;-73
2023/02/19 07:16:38;;;;;;;2.35;0.43;;;15.90;64.70;;;;;;4977855;28;20027;-73
2023/02/19 07:19:04;;;;;;;1.10;0.60;;;15.90;64.60;;;;;;4977634;28;20054;-73
2023/02/19 07:21:31;;;;;;;2.25;0.63;;;15.90;64.60;;;;;;4977581;28;20417;-74
2023/02/19 07:23:57;;;;;;;3.15;0.95;;;15.90;64.70;;;;;;4977553;28;20386;-74
2023/02/19 07:26:24;;;;;;;2.13;0.80;;;15.90;64.70;;;;;;4977268;28;20026;-74
2023/02/19 07:28:51;;;;;;;1.58;0.60;;;15.90;64.50;;;;;;4977510;28;20043;-74
2023/02/19 07:31:18;;;;;;;1.40;0.90;;;15.90;64.60;;;;;;4977257;28;20033;-74
2023/02/19 07:33:45;;;;;;;2.10;1.05;;;15.90;64.50;;;;;;4977115;28;20038;-74
2023/02/19 07:36:12;;;;;;;1.70;0.70;;;15.90;64.60;;;;;;4977089;28;20041;-75
2023/02/19 07:38:38;;;;;;;2.15;1.10;;;15.90;64.60;;;;;;4976999;28;20042;-74
2023/02/19 07:41:05;;;;;;;2.25;0.93;;;15.90;64.50;;;;;;4976854;28;20034;-75
2023/02/19 07:43:34;;;;;;;2.15;0.93;;;15.90;64.50;;;;;;4977044;28;20046;-74
2023/02/19 07:46:05;;;;;;;2.15;0.60;;;15.90;64.60;;;;;;4976891;28;20061;-74
2023/02/19 07:48:31;;;;;;;0.95;0.63;;;15.90;64.60;;;;;;4976803;28;20066;-74
2023/02/19 07:50:58;;;;;;;1.45;0.73;;;15.90;64.60;;;;;;4976794;28;20524;-74
2023/02/19 07:53:26;;;;;;;2.60;0.90;;;15.90;64.60;;;;;;4976731;28;20057;-73
2023/02/19 07:55:52;;;;;;;2.70;0.93;;;15.90;64.60;;;;;;4976637;28;20092;-74
2023/02/19 07:58:18;;;;;;;1.45;0.63;;;16.00;64.60;;;;;;4976245;28;20061;-73
2023/02/19 08:00:44;;;;;;;1.40;0.70;;;15.90;64.60;;;;;;4976520;28;20061;-75
2023/02/19 08:03:10;;;;;;;1.48;0.73;;;16.00;64.60;;;;;;4976181;28;20050;-74
2023/02/19 08:05:38;;;;;;;2.35;0.60;;;16.00;64.60;;;;;;4976313;28;20070;-72
2023/02/19 08:08:09;;;;;;;2.45;0.75;;;16.00;64.60;;;;;;4976298;28;20034;-72
2023/02/19 08:13:27;;;;;;;1.38;0.70;;;16.00;64.50;;;;;;4979354;28;20175;-74
2023/02/19 08:15:52;;;;;;;1.90;0.70;;;16.00;64.50;;;;;;4977198;28;20034;-72
2023/02/19 08:18:20;;;;;;;3.22;0.82;;;16.00;64.50;;;;;;4993578;28;20444;-73
2023/02/19 08:20:46;;;;;;;1.90;0.68;;;16.00;64.60;;;;;;4976336;28;20457;-75
2023/02/19 08:23:13;;;;;;;2.85;0.85;;;16.00;64.50;;;;;;4976488;28;20089;-76
2023/02/19 08:25:41;;;;;;;1.63;0.85;;;16.00;64.50;;;;;;4976260;28;20034;-75
2023/02/19 08:28:09;;;;;;;0.88;0.50;;;15.90;64.40;;;;;;4976511;28;20113;-76
2023/02/19 08:30:37;;;;;;;2.83;1.27;;;16.00;64.50;;;;;;4976099;28;20030;-75
2023/02/19 08:33:05;;;;;;;1.92;0.80;;;16.00;64.50;;;;;;4976315;28;20088;-74
2023/02/19 08:35:34;;;;;;;1.75;0.90;;;16.00;64.40;;;;;;4976372;28;20030;-75
2023/02/19 08:38:00;;;;;;;1.40;1.08;;;16.00;64.50;;;;;;4976276;28;20064;-75
2023/02/19 08:40:26;;;;;;;1.50;0.82;;;16.00;64.40;;;;;;4975794;28;20097;-75
2023/02/19 08:42:52;;;;;;;1.33;0.70;;;16.00;64.40;;;;;;4959681;28;20417;-75
2023/02/19 08:45:18;;;;;;;1.63;0.60;;;16.00;64.40;;;;;;4975600;28;20030;-75
2023/02/19 08:47:44;;;;;;;2.45;0.63;;;16.00;64.40;;;;;;4975667;28;20456;-75
2023/02/19 08:50:11;;;;;;;1.50;0.70;;;16.00;64.40;;;;;;4975686;28;20035;-75
2023/02/19 08:52:37;;;;;;;2.38;0.90;;;16.10;64.50;;;;;;4975695;28;20062;-75
2023/02/19 08:55:04;;;;;;;3.78;0.77;;;16.10;64.50;;;;;;4993018;28;20101;-75
2023/02/19 08:57:30;;;;;;;3.45;1.17;;;16.10;64.50;;;;;;4992982;28;20036;-75
2023/02/19 08:59:56;;;;;;;2.25;0.90;;;16.10;64.50;;;;;;4993049;28;20031;-75
2023/02/19 09:02:25;;;;;;;3.85;1.38;;;16.10;64.50;;;;;;4992828;28;20026;-75
2023/02/19 09:04:51;;;;;;;6.50;1.83;;;16.10;64.40;;;;;;4992822;28;20517;-75
2023/02/19 09:07:18;;;;;;;8.98;2.70;;;16.10;64.40;;;;;;4992788;28;20033;-75
2023/02/19 09:09:43;;;;;;;9.18;2.97;;;16.10;64.30;;;;;;4992325;28;20034;-76
2023/02/19 09:12:12;;;;;;;9.18;3.45;;;16.10;64.30;;;;;;4992734;28;20097;-75
2023/02/19 09:14:38;;;;;;;8.73;4.03;;;16.10;64.30;;;;;;4992821;28;20077;-75
2023/02/19 09:17:05;;;;;;;7.22;3.33;;;16.10;64.20;;;;;;4992710;28;20064;-73
2023/02/19 09:19:32;;;;;;;9.30;4.22;;;16.10;64.20;;;;;;4992956;28;20065;-73
2023/02/19 09:21:58;;;;;;;9.73;3.72;;;16.10;64.20;;;;;;4992902;28;20030;-72
2023/02/19 09:24:24;;;;;;;8.15;3.35;;;16.10;64.20;;;;;;4992401;28;20489;-73
2023/02/19 09:26:51;;;;;;;12.50;4.57;;;16.10;64.20;;;;;;4992892;28;20495;-73
2023/02/19 09:29:18;;;;;;;7.78;3.33;;;16.10;64.20;;;;;;4992858;28;20042;-73
2023/02/19 09:31:44;;;;;;;8.15;3.85;;;16.10;64.20;;;;;;4992992;28;20416;-73
2023/02/19 09:34:13;;;;;;;8.10;4.00;;;16.10;64.20;;;;;;4992844;28;20033;-76
2023/02/19 09:36:39;;;;;;;7.05;3.75;;;16.10;64.20;;;;;;4992712;28;20627;-76
2023/02/19 09:39:07;;;;;;;7.05;4.10;;;16.10;64.10;;;;;;4992414;28;20092;-75
2023/02/19 09:41:45;;;;;;;8.20;3.58;;;16.10;64.10;;;;;;4992692;28;20034;-74
2023/02/19 09:44:19;;;;;;;8.60;3.38;;;16.10;64.10;;;;;;4992738;28;20041;-74
2023/02/19 09:46:51;;;;;;;7.30;3.35;;;16.20;64.20;;;;;;4992511;28;20027;-74
2023/02/19 09:49:33;;;;;;;9.05;3.60;;;16.20;64.20;;;;;;4992785;28;20030;-77
2023/02/19 09:52:06;;;;;;;8.13;3.28;;;16.20;64.20;;;;;;4992846;28;20503;-72
2023/02/19 09:54:35;;;;;;;7.13;3.42;;;16.20;64.20;;;;;;4992634;28;20027;-72
2023/02/19 09:57:02;;;;;;;7.70;3.15;;;16.20;64.10;;;;;;4992263;28;20494;-72
2023/02/19 09:59:36;;;;;;;7.80;3.00;;;16.20;64.10;;;;;;4992524;28;20021;-73
2023/02/19 10:02:14;;;;;;;7.18;2.67;;;16.20;64.70;;;;;;4992611;28;20030;-72
2023/02/19 10:04:42;;;;;;;8.77;3.67;;;16.30;64.00;;;;;;4992233;28;20069;-72
2023/02/19 10:07:19;;;;;;;7.68;3.38;;;16.30;64.00;;;;;;4992570;28;20198;-72
2023/02/19 10:09:51;;;;;;;7.43;2.67;;;16.30;63.90;;;;;;4992262;28;20532;-72
2023/02/19 10:12:24;;;;;;;5.53;2.85;;;16.30;63.90;;;;;;4992590;28;20077;-73
2023/02/19 10:14:54;;;;;;;4.25;2.40;;;16.30;63.90;;;;;;4995108;28;20102;-73
2023/02/19 10:17:28;;;;;;;10.07;2.70;;;16.30;63.90;;;;;;4994121;28;20026;-72
2023/02/19 10:19:55;;;;;;;7.72;2.90;;;16.30;63.90;;;;;;4992108;28;20085;-73
2023/02/19 10:22:22;;;;;;;5.88;2.80;;;16.30;64.00;;;;;;4994227;28;20070;-72
2023/02/19 10:24:52;;;;;;;7.00;2.85;;;16.30;64.00;;;;;;4995858;28;20072;-72
2023/02/19 10:27:19;;;;;;;5.07;2.30;;;16.30;64.10;;;;;;4996097;28;20029;-73
2023/02/19 10:29:47;;;;;;;5.35;2.63;;;16.30;64.20;;;;;;4995952;28;20027;-75
2023/02/19 10:32:22;;;;;;;6.50;2.13;;;16.30;64.10;;;;;;4995673;28;20022;-72
2023/02/19 10:35:13;;;;;;;6.97;2.63;;;16.30;64.10;;;;;;4995934;28;20022;-74
2023/02/19 10:37:49;;;;;;;7.25;2.42;;;16.40;64.20;;;;;;4995813;28;20022;-74
2023/02/19 10:40:21;;;;;;;5.45;2.17;;;16.30;64.20;;;;;;4995767;28;20158;-74
2023/02/19 10:42:49;;;;;;;5.25;1.90;;;16.30;64.20;;;;;;4995602;28;20511;-73
2023/02/19 10:45:22;;;;;;;7.05;2.45;;;16.30;64.30;;;;;;4995313;28;20026;-73
2023/02/19 10:47:49;;;;;;;4.10;2.00;;;16.30;64.20;;;;;;4995637;28;20057;-73
2023/02/19 10:50:25;;;;;;;4.50;2.05;;;16.30;64.20;;;;;;4995606;28;20084;-73
2023/02/19 10:52:54;;;;;;;4.22;2.08;;;16.40;64.30;;;;;;4995257;28;20058;-74
2023/02/19 10:55:33;;;;;;;5.38;1.83;;;16.30;64.20;;;;;;4994997;28;20029;-74
2023/02/19 10:58:26;;;;;;;7.05;2.00;;;16.30;64.30;;;;;;4994742;28;20030;-74
2023/02/19 11:01:20;;;;;;;3.53;1.67;;;16.30;64.30;;;;;;4994872;28;20441;-74
2023/02/19 11:03:50;;;;;;;4.65;1.67;;;16.30;64.30;;;;;;4984862;28;20050;-74
2023/02/19 11:06:19;;;;;;;3.22;1.60;;;16.40;64.40;;;;;;4994934;28;20039;-74
2023/02/19 11:08:45;;;;;;;4.22;1.67;;;16.30;64.30;;;;;;4995276;28;20034;-75
2023/02/19 11:11:32;;;;;;;2.90;1.67;;;16.30;64.30;;;;;;4995116;28;20053;-75
2023/02/19 11:14:02;;;;;;;3.72;1.45;;;16.40;64.40;;;;;;4995135;28;20034;-74
2023/02/19 11:16:43;;;;;;;4.82;1.65;;;16.40;64.40;;;;;;4995213;28;20069;-75
2023/02/19 11:19:24;;;;;;;3.83;1.55;;;16.40;64.50;;;;;;4995107;28;20022;-71
2023/02/19 11:21:50;;;;;;;2.58;1.40;;;16.30;64.40;;;;;;4995073;28;20396;-75
2023/02/19 11:24:33;;;;;;;3.63;1.20;;;16.30;64.40;;;;;;4994666;28;20038;-75
2023/02/19 11:27:01;;;;;;;3.78;1.30;;;16.30;64.40;;;;;;4994710;28;20027;-74
2023/02/19 11:29:33;;;;;;;4.28;1.40;;;16.40;64.40;;;;;;4994640;28;20053;-73
2023/02/19 11:32:18;;;;;;;2.22;1.17;;;16.40;64.40;;;;;;4994604;28;20042;-75
2023/02/19 11:34:44;;;;;;;2.70;1.30;;;16.40;64.30;;;;;;4993887;28;20026;-77
2023/02/19 11:37:14;;;;;;;3.85;1.42;;;16.40;64.30;;;;;;4994578;28;20109;-76
2023/02/19 11:39:46;;;;;;;2.58;1.50;;;16.30;64.40;;;;;;4994417;28;20033;-75
2023/02/19 11:42:30;;;;;;;3.03;1.02;;;16.30;64.30;;;;;;4994570;28;20058;-77
2023/02/19 11:45:25;;;;;;;2.22;1.15;;;16.40;64.30;;;;;;4994556;28;20035;-73
2023/02/19 11:48:26;;;;;;;4.03;1.42;;;16.40;64.30;;;;;;4994231;28;20504;-73
2023/02/19 11:51:29;;;;;;;2.15;1.10;;;16.40;64.30;;;;;;4994128;28;20026;-74
2023/02/19 11:54:07;;;;;;;2.60;1.13;;;16.30;64.20;;;;;;4976681;28;20396;-73
2023/02/19 11:56:37;;;;;;;3.65;1.45;;;16.40;64.20;;;;;;4994443;28;20027;-74
2023/02/19 11:59:10;;;;;;;1.80;1.00;;;16.40;64.10;;;;;;4994327;28;20029;-73
2023/02/19 12:01:39;;;;;;;3.85;1.63;;;16.30;72.30;;;;;;4994028;28;20037;-74
2023/02/19 12:04:24;;;;;;;2.15;1.05;;;16.30;64.00;;;;;;4993695;28;20493;-74
2023/02/19 12:07:29;;;;;;;3.00;1.00;;;16.40;64.00;;;;;;4994119;28;20026;-74
2023/02/19 12:10:18;;;;;;;2.30;1.02;;;16.40;64.00;;;;;;4994086;28;20392;-73
2023/02/19 12:13:23;;;;;;;3.70;1.40;;;16.40;64.00;;;;;;4994119;28;20026;-74
2023/02/19 12:15:56;;;;;;;3.33;1.13;;;16.40;64.00;;;;;;4914508;29;20091;-75
2023/02/19 12:18:45;;;;;;;1.75;0.90;;;16.40;63.90;;;;;;4914599;29;20376;-73
2023/02/19 12:21:57;;;;;;;3.05;1.17;;;16.40;63.90;;;;;;4967752;28;20058;-74
2023/02/19 12:24:35;;;;;;;1.20;0.82;;;16.40;63.90;;;;;;4914479;29;20051;-74
2023/02/19 12:27:28;;;;;;;2.75;0.88;;;16.40;63.80;;;;;;4989286;28;20374;-75
2023/02/19 12:30:36;;;;;;;4.82;1.08;;;16.40;63.80;;;;;;4993626;28;20027;-75
2023/02/19 12:33:33;;;;;;;1.45;0.93;;;16.40;63.80;;;;;;4993627;28;20026;-73
2023/02/19 12:36:05;;;;;;;1.27;0.75;;;16.40;63.70;;;;;;4993361;28;20034;-74
2023/02/19 12:38:52;;;;;;;0.90;0.80;;;16.40;63.60;;;;;;4993651;28;20030;-73
2023/02/19 12:41:41;;;;;;;5.93;0.90;;;16.40;63.60;;;;;;4993267;28;20051;-73
2023/02/19 12:44:13;;;;;;;2.38;1.00;;;16.40;63.60;;;;;;4993248;28;20472;-73
2023/02/19 12:46:46;;;;;;;3.97;0.77;;;16.40;63.70;;;;;;4992876;28;20366;-73
2023/02/19 12:49:12;;;;;;;2.17;0.93;;;16.40;63.60;;;;;;4993282;28;20085;-73
2023/02/19 12:51:56;;;;;;;2.42;1.05;;;16.40;63.50;;;;;;4993361;28;20026;-73
2023/02/19 12:54:27;;;;;;;2.40;1.20;;;16.40;63.50;;;;;;4993414;28;20027;-73
2023/02/19 12:57:04;;;;;;;4.90;1.60;;;16.40;63.50;;;;;;4993474;28;20014;-73
2023/02/19 12:59:54;;;;;;;2.17;0.70;;;16.40;63.40;;;;;;4993628;28;20026;-73
2023/02/19 13:02:24;;;;;;;;;;;16.40;63.40;;;;;;4993222;28;20031;-73
2023/02/19 13:04:54;;;;;;;1.58;0.77;;;16.40;63.40;;;;;;4992886;28;19921;-73
2023/02/19 13:07:39;;;;;;;3.22;0.85;;;16.40;63.40;;;;;;4993135;28;20496;-73
2023/02/19 13:10:14;;;;;;;3.13;1.15;;;16.40;63.40;;;;;;4993247;28;20049;-73
2023/02/19 13:12:43;;;;;;;2.28;0.70;;;16.30;63.40;;;;;;4993221;28;20041;-73
2023/02/19 13:15:51;;;;;;;3.58;1.05;;;16.40;63.40;;;;;;4993041;28;20018;-73
2023/02/19 13:18:31;;;;;;;2.60;0.85;;;16.40;63.40;;;;;;4949665;28;20117;-74
2023/02/19 13:20:57;;;;;;;2.20;0.80;;;16.40;63.50;;;;;;4992742;28;20031;-73
2023/02/19 13:26:23;;;;;;;3.70;0.88;;;16.40;63.50;;;;;;4993042;28;20038;-73
2023/02/19 13:29:07;;;;;;;1.92;0.65;;;16.40;63.40;;;;;;4992828;28;20026;-74
2023/02/19 13:31:45;;;;;;;2.15;0.70;;;16.40;63.30;;;;;;4992640;28;20080;-73
2023/02/19 13:34:11;;;;;;;2.50;0.80;;;16.40;63.40;;;;;;4993000;28;20402;-73
2023/02/19 13:36:37;;;;;;;2.05;0.77;;;16.40;63.30;;;;;;4992886;28;20034;-73